sensor_id;sensor_type;location;lat;lon;timestamp;temperature;humidity
70820;DHT22;58439;51.046;13.692;2023-03-21T00:00:52;9.90;99.90
70820;DHT22;58439;51.046;13.692;2023-03-21T00:03:20;9.80;99.90
70820;DHT22;58439;51.046;13.692;2023-03-21T00:05:47;9.90;99.90
70820;DHT22;58439;51.046;13.692;2023-03-21T00:08:18;9.90;99.90
70820;DHT22;58439;51.046;13.692;2023-03-21T00:10:46;9.90;99.90
70820;DHT22;58439;51.046;13.692;2023-03-21T00:13:16;9.90;99.90
70820;DHT22;58439;51.046;13.692;2023-03-21T00:15:44;9.90;99.90
70820;DHT22;58439;51.046;13.692;2023-03-21T00:18:30;9.90;99.90
70820;DHT22;58439;51.046;13.692;2023-03-21T00:20:58;9.90;99.90
70820;DHT22;58439;51.046;13.692;2023-03-21T00:23:46;9.90;99.90
70820;DHT22;58439;51.046;13.692;2023-03-21T00:26:14;10.00;99.90
70820;DHT22;58439;51.046;13.692;2023-03-21T00:28:41;10.00;99.90
70820;DHT22;58439;51.046;13.692;2023-03-21T00:31:09;10.00;99.90
70820;DHT22;58439;51.046;13.692;2023-03-21T00:33:37;10.00;99.90
70820;DHT22;58439;51.046;13.692;2023-03-21T00:36:07;10.00;99.90
70820;DHT22;58439;51.046;13.692;2023-03-21T00:38:36;10.00;99.90
70820;DHT22;58439;51.046;13.692;2023-03-21T00:41:06;9.90;99.90
70820;DHT22;58439;51.046;13.692;2023-03-21T00:43:50;9.90;99.90
70820;DHT22;58439;51.046;13.692;2023-03-21T00:46:17;9.90;99.90
70820;DHT22;58439;51.046;13.692;2023-03-21T00:48:46;9.80;99.90
70820;DHT22;58439;51.046;13.692;2023-03-21T00:51:14;9.80;99.90
70820;DHT22;58439;51.046;13.692;2023-03-21T00:53:56;9.70;99.90
70820;DHT22;58439;51.046;13.692;2023-03-21T00:56:26;9.70;99.90
70820;DHT22;58439;51.046;13.692;2023-03-21T00:58:53;9.70;99.90
70820;DHT22;58439;51.046;13.692;2023-03-21T01:01:21;9.70;99.90
70820;DHT22;58439;51.046;13.692;2023-03-21T01:03:47;9.60;99.90
70820;DHT22;58439;51.046;13.692;2023-03-21T01:06:17;9.60;99.90
70820;DHT22;58439;51.046;13.692;2023-03-21T01:08:46;9.60;99.90
70820;DHT22;58439;51.046;13.692;2023-03-21T01:11:23;9.60;99.90
70820;DHT22;58439;51.046;13.692;2023-03-21T01:13:52;9.50;99.90
70820;DHT22;58439;51.046;13.692;2023-03-21T01:16:33;9.50;99.90
70820;DHT22;58439;51.046;13.692;2023-03-21T01:19:01;9.50;99.90
70820;DHT22;58439;51.046;13.692;2023-03-21T01:21:33;9.40;99.90
70820;DHT22;58439;51.046;13.692;2023-03-21T01:24:01;9.40;99.90
70820;DHT22;58439;51.046;13.692;2023-03-21T01:26:29;9.40;99.90
70820;DHT22;58439;51.046;13.692;2023-03-21T01:28:56;9.40;99.90
70820;DHT22;58439;51.046;13.692;2023-03-21T01:31:24;9.40;99.90
70820;DHT22;58439;51.046;13.692;2023-03-21T01:33:51;9.40;99.90
70820;DHT22;58439;51.046;13.692;2023-03-21T01:36:19;9.40;99.90
70820;DHT22;58439;51.046;13.692;2023-03-21T01:38:54;9.40;99.90
70820;DHT22;58439;51.046;13.692;2023-03-21T01:47:23;9.40;99.90
70820;DHT22;58439;51.046;13.692;2023-03-21T01:50:05;9.40;99.90
70820;DHT22;58439;51.046;13.692;2023-03-21T01:52:40;9.40;99.90
70820;DHT22;58439;51.046;13.692;2023-03-21T01:55:13;9.40;99.90
70820;DHT22;58439;51.046;13.692;2023-03-21T01:58:01;9.30;99.90
70820;DHT22;58439;51.046;13.692;2023-03-21T02:00:40;9.30;99.90
70820;DHT22;58439;51.046;13.692;2023-03-21T02:03:21;9.30;99.90
70820;DHT22;58439;51.046;13.692;2023-03-21T02:06:12;9.40;99.90
70820;DHT22;58439;51.046;13.692;2023-03-21T02:09:07;9.30;99.90
70820;DHT22;58439;51.046;13.692;2023-03-21T02:11:38;9.40;99.90
70820;DHT22;58439;51.046;13.692;2023-03-21T02:14:08;9.30;99.90
70820;DHT22;58439;51.046;13.692;2023-03-21T02:16:59;9.30;99.90
70820;DHT22;58439;51.046;13.692;2023-03-21T02:34:05;9.00;99.90
70820;DHT22;58439;51.046;13.692;2023-03-21T02:39:45;8.90;99.90
70820;DHT22;58439;51.046;13.692;2023-03-21T02:45:27;8.90;99.90
70820;DHT22;58439;51.046;13.692;2023-03-21T02:48:04;8.90;99.90
70820;DHT22;58439;51.046;13.692;2023-03-21T02:50:47;8.90;99.90
70820;DHT22;58439;51.046;13.692;2023-03-21T02:53:37;8.90;99.90
70820;DHT22;58439;51.046;13.692;2023-03-21T02:56:08;8.80;99.90
70820;DHT22;58439;51.046;13.692;2023-03-21T02:58:43;8.80;99.90
70820;DHT22;58439;51.046;13.692;2023-03-21T03:01:10;8.80;99.90
70820;DHT22;58439;51.046;13.692;2023-03-21T03:04:03;8.70;99.90
70820;DHT22;58439;51.046;13.692;2023-03-21T03:06:35;8.60;99.90
70820;DHT22;58439;51.046;13.692;2023-03-21T03:09:27;8.60;99.90
70820;DHT22;58439;51.046;13.692;2023-03-21T03:12:13;8.50;99.90
70820;DHT22;58439;51.046;13.692;2023-03-21T03:14:51;8.50;99.90
70820;DHT22;58439;51.046;13.692;2023-03-21T03:17:47;8.50;99.90
70820;DHT22;58439;51.046;13.692;2023-03-21T03:22:56;8.40;99.90
70820;DHT22;58439;51.046;13.692;2023-03-21T03:25:44;8.40;99.90
70820;DHT22;58439;51.046;13.692;2023-03-21T03:28:23;8.40;99.90
70820;DHT22;58439;51.046;13.692;2023-03-21T03:30:54;8.40;99.90
70820;DHT22;58439;51.046;13.692;2023-03-21T03:33:40;8.40;99.90
70820;DHT22;58439;51.046;13.692;2023-03-21T03:36:12;8.40;99.90
70820;DHT22;58439;51.046;13.692;2023-03-21T03:39:07;8.40;99.90
70820;DHT22;58439;51.046;13.692;2023-03-21T03:41:44;8.40;99.90
70820;DHT22;58439;51.046;13.692;2023-03-21T03:44:38;8.40;99.90
70820;DHT22;58439;51.046;13.692;2023-03-21T03:47:11;8.30;99.90
70820;DHT22;58439;51.046;13.692;2023-03-21T03:50:13;8.40;99.90
70820;DHT22;58439;51.046;13.692;2023-03-21T03:52:55;8.30;99.90
70820;DHT22;58439;51.046;13.692;2023-03-21T03:55:35;8.30;99.90
70820;DHT22;58439;51.046;13.692;2023-03-21T03:58:12;8.30;99.90
70820;DHT22;58439;51.046;13.692;2023-03-21T04:00:51;8.20;99.90
70820;DHT22;58439;51.046;13.692;2023-03-21T04:03:20;8.20;99.90
70820;DHT22;58439;51.046;13.692;2023-03-21T04:05:48;8.20;99.90
70820;DHT22;58439;51.046;13.692;2023-03-21T04:08:16;8.20;99.90
70820;DHT22;58439;51.046;13.692;2023-03-21T04:10:50;8.20;99.90
70820;DHT22;58439;51.046;13.692;2023-03-21T04:13:17;8.20;99.90
70820;DHT22;58439;51.046;13.692;2023-03-21T04:16:03;8.20;99.90
70820;DHT22;58439;51.046;13.692;2023-03-21T04:18:31;8.20;99.90
70820;DHT22;58439;51.046;13.692;2023-03-21T04:20:58;8.20;99.90
70820;DHT22;58439;51.046;13.692;2023-03-21T04:23:27;8.20;99.90
70820;DHT22;58439;51.046;13.692;2023-03-21T04:25:55;8.20;99.90
70820;DHT22;58439;51.046;13.692;2023-03-21T04:28:34;8.20;99.90
70820;DHT22;58439;51.046;13.692;2023-03-21T04:31:21;8.20;99.90
70820;DHT22;58439;51.046;13.692;2023-03-21T04:34:04;8.30;99.90
70820;DHT22;58439;51.046;13.692;2023-03-21T04:36:37;8.30;99.90
70820;DHT22;58439;51.046;13.692;2023-03-21T04:39:12;8.30;99.90
70820;DHT22;58439;51.046;13.692;2023-03-21T04:41:44;8.30;99.90
70820;DHT22;58439;51.046;13.692;2023-03-21T04:44:12;8.30;99.90
70820;DHT22;58439;51.046;13.692;2023-03-21T04:46:41;8.30;99.90
70820;DHT22;58439;51.046;13.692;2023-03-21T04:49:09;8.30;99.90
70820;DHT22;58439;51.046;13.692;2023-03-21T04:51:37;8.30;99.90
70820;DHT22;58439;51.046;13.692;2023-03-21T04:54:09;8.30;99.90
70820;DHT22;58439;51.046;13.692;2023-03-21T04:56:35;8.30;99.90
70820;DHT22;58439;51.046;13.692;2023-03-21T04:59:08;8.30;99.90
70820;DHT22;58439;51.046;13.692;2023-03-21T05:01:36;8.30;99.90
70820;DHT22;58439;51.046;13.692;2023-03-21T05:04:03;8.40;99.90
70820;DHT22;58439;51.046;13.692;2023-03-21T05:06:33;8.40;99.90
70820;DHT22;58439;51.046;13.692;2023-03-21T05:09:00;8.30;99.90
70820;DHT22;58439;51.046;13.692;2023-03-21T05:11:36;8.30;99.90
70820;DHT22;58439;51.046;13.692;2023-03-21T05:14:08;8.40;99.90
70820;DHT22;58439;51.046;13.692;2023-03-21T05:16:39;8.40;99.90
70820;DHT22;58439;51.046;13.692;2023-03-21T05:19:15;8.30;99.90
70820;DHT22;58439;51.046;13.692;2023-03-21T05:21:44;8.40;99.90
70820;DHT22;58439;51.046;13.692;2023-03-21T05:24:20;8.40;99.90
70820;DHT22;58439;51.046;13.692;2023-03-21T05:26:49;8.40;99.90
70820;DHT22;58439;51.046;13.692;2023-03-21T05:29:25;8.40;99.90
70820;DHT22;58439;51.046;13.692;2023-03-21T05:31:57;8.40;99.90
70820;DHT22;58439;51.046;13.692;2023-03-21T05:34:26;8.40;99.90
70820;DHT22;58439;51.046;13.692;2023-03-21T05:36:54;8.40;99.90
70820;DHT22;58439;51.046;13.692;2023-03-21T05:39:23;8.50;99.90
70820;DHT22;58439;51.046;13.692;2023-03-21T05:41:59;8.40;99.90
70820;DHT22;58439;51.046;13.692;2023-03-21T05:44:27;8.50;99.90
70820;DHT22;58439;51.046;13.692;2023-03-21T05:46:54;8.40;99.90
70820;DHT22;58439;51.046;13.692;2023-03-21T05:49:35;8.50;99.90
70820;DHT22;58439;51.046;13.692;2023-03-21T05:52:02;8.50;99.90
70820;DHT22;58439;51.046;13.692;2023-03-21T05:54:33;8.50;99.90
70820;DHT22;58439;51.046;13.692;2023-03-21T05:57:02;8.50;99.90
70820;DHT22;58439;51.046;13.692;2023-03-21T05:59:49;8.50;99.90
70820;DHT22;58439;51.046;13.692;2023-03-21T06:02:17;8.50;99.90
70820;DHT22;58439;51.046;13.692;2023-03-21T06:04:46;8.50;99.90
70820;DHT22;58439;51.046;13.692;2023-03-21T06:07:13;8.60;99.90
70820;DHT22;58439;51.046;13.692;2023-03-21T06:09:41;8.60;99.90
70820;DHT22;58439;51.046;13.692;2023-03-21T06:12:09;8.60;99.90
70820;DHT22;58439;51.046;13.692;2023-03-21T06:14:52;8.70;99.90
70820;DHT22;58439;51.046;13.692;2023-03-21T06:17:47;8.80;99.90
70820;DHT22;58439;51.046;13.692;2023-03-21T06:20:15;8.80;99.90
70820;DHT22;58439;51.046;13.692;2023-03-21T06:22:47;8.80;99.90
70820;DHT22;58439;51.046;13.692;2023-03-21T06:25:14;8.80;99.90
70820;DHT22;58439;51.046;13.692;2023-03-21T06:27:42;8.80;99.90
70820;DHT22;58439;51.046;13.692;2023-03-21T06:30:09;8.70;99.90
70820;DHT22;58439;51.046;13.692;2023-03-21T06:32:45;8.70;99.90
70820;DHT22;58439;51.046;13.692;2023-03-21T06:35:16;8.70;99.90
70820;DHT22;58439;51.046;13.692;2023-03-21T06:37:45;8.70;99.90
70820;DHT22;58439;51.046;13.692;2023-03-21T06:40:15;8.70;99.90
70820;DHT22;58439;51.046;13.692;2023-03-21T06:42:42;8.70;99.90
70820;DHT22;58439;51.046;13.692;2023-03-21T06:45:10;8.80;99.90
70820;DHT22;58439;51.046;13.692;2023-03-21T06:47:37;8.80;99.90
70820;DHT22;58439;51.046;13.692;2023-03-21T06:50:11;8.90;99.90
70820;DHT22;58439;51.046;13.692;2023-03-21T06:52:41;8.90;99.90
70820;DHT22;58439;51.046;13.692;2023-03-21T06:55:08;8.90;99.90
70820;DHT22;58439;51.046;13.692;2023-03-21T06:57:35;9.00;99.90
70820;DHT22;58439;51.046;13.692;2023-03-21T07:00:04;9.00;99.90
70820;DHT22;58439;51.046;13.692;2023-03-21T07:02:41;9.10;99.90
70820;DHT22;58439;51.046;13.692;2023-03-21T07:05:13;9.20;99.90
70820;DHT22;58439;51.046;13.692;2023-03-21T07:07:42;9.30;99.90
70820;DHT22;58439;51.046;13.692;2023-03-21T07:10:09;9.40;99.90
70820;DHT22;58439;51.046;13.692;2023-03-21T07:13:03;9.40;99.90
70820;DHT22;58439;51.046;13.692;2023-03-21T07:15:45;9.50;99.90
70820;DHT22;58439;51.046;13.692;2023-03-21T07:18:13;9.50;99.90
70820;DHT22;58439;51.046;13.692;2023-03-21T07:20:44;9.60;99.90
70820;DHT22;58439;51.046;13.692;2023-03-21T07:23:17;9.60;99.90
70820;DHT22;58439;51.046;13.692;2023-03-21T07:25:49;9.80;99.90
70820;DHT22;58439;51.046;13.692;2023-03-21T07:28:19;9.80;99.90
70820;DHT22;58439;51.046;13.692;2023-03-21T07:30:54;9.80;99.90
70820;DHT22;58439;51.046;13.692;2023-03-21T07:33:24;9.80;99.90
70820;DHT22;58439;51.046;13.692;2023-03-21T07:35:56;9.80;99.90
70820;DHT22;58439;51.046;13.692;2023-03-21T07:38:24;9.80;99.90
70820;DHT22;58439;51.046;13.692;2023-03-21T07:40:52;9.80;99.90
70820;DHT22;58439;51.046;13.692;2023-03-21T07:43:20;9.80;99.90
70820;DHT22;58439;51.046;13.692;2023-03-21T07:45:51;9.90;99.60
70820;DHT22;58439;51.046;13.692;2023-03-21T07:48:22;10.00;99.40
70820;DHT22;58439;51.046;13.692;2023-03-21T07:50:52;10.00;99.20
70820;DHT22;58439;51.046;13.692;2023-03-21T07:53:19;10.20;99.30
70820;DHT22;58439;51.046;13.692;2023-03-21T07:55:51;10.30;98.80
70820;DHT22;58439;51.046;13.692;2023-03-21T07:58:22;10.40;98.00
70820;DHT22;58439;51.046;13.692;2023-03-21T08:00:50;10.50;97.60
70820;DHT22;58439;51.046;13.692;2023-03-21T08:03:17;10.50;97.30
70820;DHT22;58439;51.046;13.692;2023-03-21T08:05:44;10.60;97.00
70820;DHT22;58439;51.046;13.692;2023-03-21T08:08:12;10.70;96.90
70820;DHT22;58439;51.046;13.692;2023-03-21T08:10:42;10.80;96.90
70820;DHT22;58439;51.046;13.692;2023-03-21T08:13:12;11.00;96.90
70820;DHT22;58439;51.046;13.692;2023-03-21T08:15:42;11.10;96.90
70820;DHT22;58439;51.046;13.692;2023-03-21T08:18:12;11.30;96.30
70820;DHT22;58439;51.046;13.692;2023-03-21T08:20:39;11.50;95.40
70820;DHT22;58439;51.046;13.692;2023-03-21T08:23:06;11.50;94.90
70820;DHT22;58439;51.046;13.692;2023-03-21T08:25:36;11.50;94.40
70820;DHT22;58439;51.046;13.692;2023-03-21T08:28:04;11.50;94.20
70820;DHT22;58439;51.046;13.692;2023-03-21T08:30:32;11.30;94.40
70820;DHT22;58439;51.046;13.692;2023-03-21T08:33:00;11.30;94.70
70820;DHT22;58439;51.046;13.692;2023-03-21T08:35:28;11.30;94.80
70820;DHT22;58439;51.046;13.692;2023-03-21T08:37:57;11.40;94.30
70820;DHT22;58439;51.046;13.692;2023-03-21T08:40:24;11.40;94.20
70820;DHT22;58439;51.046;13.692;2023-03-21T08:42:51;11.40;94.20
70820;DHT22;58439;51.046;13.692;2023-03-21T08:45:19;11.50;93.80
70820;DHT22;58439;51.046;13.692;2023-03-21T08:47:49;11.40;93.70
70820;DHT22;58439;51.046;13.692;2023-03-21T08:50:18;11.40;93.90
70820;DHT22;58439;51.046;13.692;2023-03-21T08:52:48;11.40;93.70
70820;DHT22;58439;51.046;13.692;2023-03-21T08:55:16;11.40;93.50
70820;DHT22;58439;51.046;13.692;2023-03-21T08:57:44;11.50;93.50
70820;DHT22;58439;51.046;13.692;2023-03-21T09:00:14;11.70;93.40
70820;DHT22;58439;51.046;13.692;2023-03-21T09:02:44;11.90;93.10
70820;DHT22;58439;51.046;13.692;2023-03-21T09:05:12;12.00;92.70
70820;DHT22;58439;51.046;13.692;2023-03-21T09:07:41;12.10;92.10
70820;DHT22;58439;51.046;13.692;2023-03-21T09:10:10;12.20;92.20
70820;DHT22;58439;51.046;13.692;2023-03-21T09:12:49;12.30;91.70
70820;DHT22;58439;51.046;13.692;2023-03-21T09:15:17;12.50;91.00
70820;DHT22;58439;51.046;13.692;2023-03-21T09:17:47;12.70;90.90
70820;DHT22;58439;51.046;13.692;2023-03-21T09:20:19;12.80;89.10
70820;DHT22;58439;51.046;13.692;2023-03-21T09:22:55;13.10;88.10
70820;DHT22;58439;51.046;13.692;2023-03-21T09:25:26;13.20;86.50
70820;DHT22;58439;51.046;13.692;2023-03-21T09:27:57;13.30;85.60
70820;DHT22;58439;51.046;13.692;2023-03-21T09:30:26;13.30;84.00
70820;DHT22;58439;51.046;13.692;2023-03-21T09:32:54;13.30;84.30
70820;DHT22;58439;51.046;13.692;2023-03-21T09:35:22;13.30;84.20
70820;DHT22;58439;51.046;13.692;2023-03-21T09:37:52;13.40;84.10
70820;DHT22;58439;51.046;13.692;2023-03-21T09:46:17;13.40;83.10
70820;DHT22;58439;51.046;13.692;2023-03-21T09:48:59;13.30;82.00
70820;DHT22;58439;51.046;13.692;2023-03-21T09:51:32;13.10;81.20
70820;DHT22;58439;51.046;13.692;2023-03-21T09:54:04;12.90;83.60
70820;DHT22;58439;51.046;13.692;2023-03-21T09:56:39;12.90;85.60
70820;DHT22;58439;51.046;13.692;2023-03-21T09:59:09;12.90;86.30
70820;DHT22;58439;51.046;13.692;2023-03-21T10:01:45;13.00;86.30
70820;DHT22;58439;51.046;13.692;2023-03-21T10:04:14;13.10;86.50
70820;DHT22;58439;51.046;13.692;2023-03-21T10:06:56;13.30;87.10
70820;DHT22;58439;51.046;13.692;2023-03-21T10:09:27;13.40;87.10
70820;DHT22;58439;51.046;13.692;2023-03-21T10:12:00;13.60;85.60
70820;DHT22;58439;51.046;13.692;2023-03-21T10:14:52;13.60;84.90
70820;DHT22;58439;51.046;13.692;2023-03-21T10:17:28;13.60;84.00
70820;DHT22;58439;51.046;13.692;2023-03-21T10:22:49;13.70;84.20
70820;DHT22;58439;51.046;13.692;2023-03-21T10:25:35;13.80;82.00
70820;DHT22;58439;51.046;13.692;2023-03-21T10:28:06;13.80;81.70
70820;DHT22;58439;51.046;13.692;2023-03-21T10:30:43;13.90;81.80
70820;DHT22;58439;51.046;13.692;2023-03-21T10:33:16;14.10;81.20
70820;DHT22;58439;51.046;13.692;2023-03-21T10:35:54;14.30;78.80
70820;DHT22;58439;51.046;13.692;2023-03-21T10:38:24;14.40;78.40
70820;DHT22;58439;51.046;13.692;2023-03-21T10:40:52;14.60;76.30
70820;DHT22;58439;51.046;13.692;2023-03-21T10:45:53;15.20;67.40
70820;DHT22;58439;51.046;13.692;2023-03-21T10:48:21;15.30;65.80
70820;DHT22;58439;51.046;13.692;2023-03-21T10:50:53;15.30;66.00
70820;DHT22;58439;51.046;13.692;2023-03-21T10:53:33;15.50;63.00
70820;DHT22;58439;51.046;13.692;2023-03-21T10:56:05;15.80;60.80
70820;DHT22;58439;51.046;13.692;2023-03-21T10:58:37;15.80;58.60
70820;DHT22;58439;51.046;13.692;2023-03-21T11:01:11;15.70;59.40
70820;DHT22;58439;51.046;13.692;2023-03-21T11:03:42;15.70;60.70
70820;DHT22;58439;51.046;13.692;2023-03-21T11:08:49;16.10;59.20
70820;DHT22;58439;51.046;13.692;2023-03-21T11:13:55;16.20;57.50
70820;DHT22;58439;51.046;13.692;2023-03-21T11:16:31;16.20;57.40
70820;DHT22;58439;51.046;13.692;2023-03-21T11:19:17;16.10;58.40
70820;DHT22;58439;51.046;13.692;2023-03-21T11:21:52;16.00;59.30
70820;DHT22;58439;51.046;13.692;2023-03-21T11:24:25;15.90;59.00
70820;DHT22;58439;51.046;13.692;2023-03-21T11:26:55;16.00;58.30
70820;DHT22;58439;51.046;13.692;2023-03-21T11:29:26;16.00;58.10
70820;DHT22;58439;51.046;13.692;2023-03-21T11:31:57;16.00;59.00
70820;DHT22;58439;51.046;13.692;2023-03-21T11:34:32;16.10;59.70
70820;DHT22;58439;51.046;13.692;2023-03-21T11:37:19;16.00;58.90
70820;DHT22;58439;51.046;13.692;2023-03-21T11:39:54;15.80;59.00
70820;DHT22;58439;51.046;13.692;2023-03-21T11:42:31;15.70;58.90
70820;DHT22;58439;51.046;13.692;2023-03-21T11:47:51;16.00;58.50
70820;DHT22;58439;51.046;13.692;2023-03-21T11:59:05;16.40;54.20
70820;DHT22;58439;51.046;13.692;2023-03-21T12:01:45;16.50;54.30
70820;DHT22;58439;51.046;13.692;2023-03-21T12:07:25;16.60;53.50
70820;DHT22;58439;51.046;13.692;2023-03-21T12:15:49;16.80;53.50
70820;DHT22;58439;51.046;13.692;2023-03-21T12:21:21;16.60;53.30
70820;DHT22;58439;51.046;13.692;2023-03-21T12:26:39;16.60;54.10
70820;DHT22;58439;51.046;13.692;2023-03-21T12:35:08;16.30;56.40
70820;DHT22;58439;51.046;13.692;2023-03-21T12:38:15;16.20;56.20
70820;DHT22;58439;51.046;13.692;2023-03-21T12:43:48;16.20;56.90
70820;DHT22;58439;51.046;13.692;2023-03-21T12:46:38;16.30;54.80
70820;DHT22;58439;51.046;13.692;2023-03-21T12:49:32;16.40;55.10
70820;DHT22;58439;51.046;13.692;2023-03-21T12:52:09;16.50;54.80
70820;DHT22;58439;51.046;13.692;2023-03-21T12:54:41;16.80;54.00
70820;DHT22;58439;51.046;13.692;2023-03-21T12:57:25;16.90;53.30
70820;DHT22;58439;51.046;13.692;2023-03-21T13:00:24;17.00;52.60
70820;DHT22;58439;51.046;13.692;2023-03-21T13:03:04;17.00;51.70
70820;DHT22;58439;51.046;13.692;2023-03-21T13:05:47;17.00;51.30
70820;DHT22;58439;51.046;13.692;2023-03-21T13:08:20;16.90;51.70
70820;DHT22;58439;51.046;13.692;2023-03-21T13:10:51;16.90;52.30
70820;DHT22;58439;51.046;13.692;2023-03-21T13:16:28;17.10;52.00
70820;DHT22;58439;51.046;13.692;2023-03-21T13:22:04;17.40;51.30
70820;DHT22;58439;51.046;13.692;2023-03-21T13:24:41;17.30;50.50
70820;DHT22;58439;51.046;13.692;2023-03-21T13:27:34;17.30;50.50
70820;DHT22;58439;51.046;13.692;2023-03-21T13:30:22;17.30;50.30
70820;DHT22;58439;51.046;13.692;2023-03-21T13:33:11;17.50;50.20
70820;DHT22;58439;51.046;13.692;2023-03-21T13:35:42;17.60;49.60
70820;DHT22;58439;51.046;13.692;2023-03-21T13:38:21;17.70;49.00
70820;DHT22;58439;51.046;13.692;2023-03-21T13:40:59;17.60;48.80
70820;DHT22;58439;51.046;13.692;2023-03-21T13:43:54;17.60;49.00
70820;DHT22;58439;51.046;13.692;2023-03-21T13:49:33;17.50;48.90
70820;DHT22;58439;51.046;13.692;2023-03-21T13:52:23;17.50;49.20
70820;DHT22;58439;51.046;13.692;2023-03-21T13:54:55;17.50;49.60
70820;DHT22;58439;51.046;13.692;2023-03-21T14:03:42;17.90;49.80
70820;DHT22;58439;51.046;13.692;2023-03-21T14:06:11;18.20;47.90
70820;DHT22;58439;51.046;13.692;2023-03-21T14:08:42;18.10;47.60
70820;DHT22;58439;51.046;13.692;2023-03-21T14:11:14;17.90;47.80
70820;DHT22;58439;51.046;13.692;2023-03-21T14:13:44;17.70;48.40
70820;DHT22;58439;51.046;13.692;2023-03-21T14:16:18;17.50;49.10
70820;DHT22;58439;51.046;13.692;2023-03-21T14:18:52;17.50;49.10
70820;DHT22;58439;51.046;13.692;2023-03-21T14:21:23;17.50;49.20
70820;DHT22;58439;51.046;13.692;2023-03-21T14:23:55;17.60;49.00
70820;DHT22;58439;51.046;13.692;2023-03-21T14:26:24;17.60;50.30
70820;DHT22;58439;51.046;13.692;2023-03-21T14:28:53;17.60;49.70
70820;DHT22;58439;51.046;13.692;2023-03-21T14:31:21;17.60;50.10
70820;DHT22;58439;51.046;13.692;2023-03-21T14:33:49;17.50;50.60
70820;DHT22;58439;51.046;13.692;2023-03-21T14:36:31;17.40;50.40
70820;DHT22;58439;51.046;13.692;2023-03-21T14:39:25;17.20;51.10
70820;DHT22;58439;51.046;13.692;2023-03-21T14:41:55;17.20;51.90
70820;DHT22;58439;51.046;13.692;2023-03-21T14:44:40;17.20;51.60
70820;DHT22;58439;51.046;13.692;2023-03-21T14:47:22;17.30;51.10
70820;DHT22;58439;51.046;13.692;2023-03-21T14:49:51;17.50;50.80
70820;DHT22;58439;51.046;13.692;2023-03-21T14:52:32;17.60;49.90
70820;DHT22;58439;51.046;13.692;2023-03-21T14:55:00;17.60;49.50
70820;DHT22;58439;51.046;13.692;2023-03-21T14:57:32;17.50;49.30
70820;DHT22;58439;51.046;13.692;2023-03-21T15:00:30;17.30;49.40
70820;DHT22;58439;51.046;13.692;2023-03-21T15:02:58;17.20;49.70
70820;DHT22;58439;51.046;13.692;2023-03-21T15:05:28;17.10;49.90
70820;DHT22;58439;51.046;13.692;2023-03-21T15:08:20;17.10;50.70
70820;DHT22;58439;51.046;13.692;2023-03-21T15:11:03;17.00;50.90
70820;DHT22;58439;51.046;13.692;2023-03-21T15:13:44;16.80;51.10
70820;DHT22;58439;51.046;13.692;2023-03-21T15:16:12;16.60;51.80
70820;DHT22;58439;51.046;13.692;2023-03-21T15:18:45;16.40;52.80
70820;DHT22;58439;51.046;13.692;2023-03-21T15:23:46;16.20;55.50
70820;DHT22;58439;51.046;13.692;2023-03-21T15:26:16;16.10;56.30
70820;DHT22;58439;51.046;13.692;2023-03-21T15:28:47;16.10;56.90
70820;DHT22;58439;51.046;13.692;2023-03-21T15:31:21;16.10;58.30
70820;DHT22;58439;51.046;13.692;2023-03-21T15:34:01;16.10;58.80
70820;DHT22;58439;51.046;13.692;2023-03-21T15:39:05;16.10;59.50
70820;DHT22;58439;51.046;13.692;2023-03-21T15:41:36;16.00;60.40
70820;DHT22;58439;51.046;13.692;2023-03-21T15:44:12;15.80;61.30
70820;DHT22;58439;51.046;13.692;2023-03-21T15:51:45;15.60;65.80
70820;DHT22;58439;51.046;13.692;2023-03-21T15:54:17;15.50;67.20
70820;DHT22;58439;51.046;13.692;2023-03-21T15:56:53;15.50;68.20
70820;DHT22;58439;51.046;13.692;2023-03-21T15:59:28;15.60;69.20
70820;DHT22;58439;51.046;13.692;2023-03-21T16:01:59;15.70;70.00
70820;DHT22;58439;51.046;13.692;2023-03-21T16:04:27;15.90;70.10
70820;DHT22;58439;51.046;13.692;2023-03-21T16:07:02;16.20;67.90
70820;DHT22;58439;51.046;13.692;2023-03-21T16:09:42;16.30;67.00
70820;DHT22;58439;51.046;13.692;2023-03-21T16:12:18;16.30;65.50
70820;DHT22;58439;51.046;13.692;2023-03-21T16:14:48;16.20;64.90
70820;DHT22;58439;51.046;13.692;2023-03-21T16:17:34;16.00;65.30
70820;DHT22;58439;51.046;13.692;2023-03-21T16:20:11;15.80;66.30
70820;DHT22;58439;51.046;13.692;2023-03-21T16:22:45;15.50;67.50
70820;DHT22;58439;51.046;13.692;2023-03-21T16:25:14;15.30;68.70
70820;DHT22;58439;51.046;13.692;2023-03-21T16:27:41;15.20;70.00
70820;DHT22;58439;51.046;13.692;2023-03-21T16:30:10;15.00;71.00
70820;DHT22;58439;51.046;13.692;2023-03-21T16:32:39;14.90;73.50
70820;DHT22;58439;51.046;13.692;2023-03-21T16:35:09;14.80;74.40
70820;DHT22;58439;51.046;13.692;2023-03-21T16:37:37;14.80;75.70
70820;DHT22;58439;51.046;13.692;2023-03-21T16:40:14;14.70;76.80
70820;DHT22;58439;51.046;13.692;2023-03-21T16:42:56;14.60;76.90
70820;DHT22;58439;51.046;13.692;2023-03-21T16:45:24;14.60;78.00
70820;DHT22;58439;51.046;13.692;2023-03-21T16:47:51;14.50;79.10
70820;DHT22;58439;51.046;13.692;2023-03-21T16:50:26;14.50;80.40
70820;DHT22;58439;51.046;13.692;2023-03-21T16:53:02;14.40;80.30
70820;DHT22;58439;51.046;13.692;2023-03-21T16:55:30;14.40;81.10
70820;DHT22;58439;51.046;13.692;2023-03-21T16:57:59;14.40;82.20
70820;DHT22;58439;51.046;13.692;2023-03-21T17:00:28;14.40;82.50
70820;DHT22;58439;51.046;13.692;2023-03-21T17:02:58;14.40;83.10
70820;DHT22;58439;51.046;13.692;2023-03-21T17:05:28;14.40;83.50
70820;DHT22;58439;51.046;13.692;2023-03-21T17:07:59;14.30;84.20
70820;DHT22;58439;51.046;13.692;2023-03-21T17:10:30;14.30;84.10
70820;DHT22;58439;51.046;13.692;2023-03-21T17:13:02;14.30;84.30
70820;DHT22;58439;51.046;13.692;2023-03-21T17:15:29;14.20;84.70
70820;DHT22;58439;51.046;13.692;2023-03-21T17:17:56;14.20;85.60
70820;DHT22;58439;51.046;13.692;2023-03-21T17:20:25;14.20;85.60
70820;DHT22;58439;51.046;13.692;2023-03-21T17:22:57;14.10;85.90
70820;DHT22;58439;51.046;13.692;2023-03-21T17:25:24;14.10;86.60
70820;DHT22;58439;51.046;13.692;2023-03-21T17:27:52;14.00;86.80
70820;DHT22;58439;51.046;13.692;2023-03-21T17:30:22;14.00;87.10
70820;DHT22;58439;51.046;13.692;2023-03-21T17:32:51;14.00;87.60
70820;DHT22;58439;51.046;13.692;2023-03-21T17:35:19;13.90;87.80
70820;DHT22;58439;51.046;13.692;2023-03-21T17:37:51;13.90;87.90
70820;DHT22;58439;51.046;13.692;2023-03-21T17:40:23;13.80;88.40
70820;DHT22;58439;51.046;13.692;2023-03-21T17:42:52;13.80;88.90
70820;DHT22;58439;51.046;13.692;2023-03-21T17:45:20;13.80;89.10
70820;DHT22;58439;51.046;13.692;2023-03-21T17:47:51;13.70;89.40